Time;durP1;ratioP1;P1;durP2;ratioP2;P2;SDS_P1;SDS_P2;PMS_P1;PMS_P2;Temp;Humidity;BMP_temperature;BMP_pressure;BME280_temperature;BME280_humidity;BME280_pressure;Samples;Min_cycle;Max_cycle;Signal;HPM_P1;HPM_P2
2024/01/22 00:00:48;;;;;;;5.05;2.70;;;;;;;5.46;83.93;100120.34;10418983;28;20049;-81
2024/01/22 00:05:51;;;;;;;5.65;2.80;;;;;;;5.44;83.14;100121.41;10450625;28;20051;-79
2024/01/22 00:10:54;;;;;;;7.28;3.72;;;;;;;5.32;84.63;100119.50;10431205;28;20048;-80
2024/01/22 00:15:59;;;;;;;8.43;3.10;;;;;;;5.62;82.95;100100.69;10432273;28;20675;-78
2024/01/22 00:21:02;;;;;;;7.97;2.78;;;;;;;5.57;84.15;100065.50;10449815;28;20203;-79
2024/01/22 00:26:05;;;;;;;5.78;2.60;;;;;;;5.61;85.30;99989.75;10446027;28;20064;-81
2024/01/22 00:31:10;;;;;;;7.72;2.92;;;;;;;5.16;90.43;100019.31;10442617;28;20155;-80
2024/01/22 00:36:13;;;;;;;4.18;1.90;;;;;;;5.19;89.39;99996.94;10456276;28;20045;-80
2024/01/22 00:41:16;;;;;;;6.60;2.75;;;;;;;5.17;89.20;99965.06;10456767;28;20044;-81
2024/01/22 00:46:21;;;;;;;3.40;2.25;;;;;;;5.12;89.16;99955.69;10450555;28;20041;-79
2024/01/22 00:51:24;;;;;;;5.75;2.50;;;;;;;5.43;87.42;99946.50;10454896;28;20522;-80
2024/01/22 00:56:28;;;;;;;3.55;1.80;;;;;;;5.51;87.20;99930.88;10433748;28;20040;-81
2024/01/22 01:01:32;;;;;;;5.65;2.58;;;;;;;5.50;87.75;99927.38;10442774;28;20135;-80
2024/01/22 01:06:35;;;;;;;8.02;2.42;;;;;;;5.59;86.66;99911.72;10432368;28;20052;-79
2024/01/22 01:11:38;;;;;;;4.80;1.92;;;;;;;5.69;86.75;99911.00;10471329;28;20050;-79
2024/01/22 01:16:43;;;;;;;5.97;1.83;;;;;;;5.91;85.29;99893.53;10449512;28;20060;-81
2024/01/22 01:21:46;;;;;;;2.88;1.60;;;;;;;6.13;83.46;99859.06;10435624;28;20041;-79
2024/01/22 01:26:49;;;;;;;3.20;1.77;;;;;;;5.97;85.29;99844.25;10455087;28;20055;-80
2024/01/22 01:31:53;;;;;;;3.70;1.63;;;;;;;6.19;84.33;99857.78;10458889;28;20048;-81
2024/01/22 01:36:57;;;;;;;4.22;1.65;;;;;;;6.22;85.22;99824.69;10457059;28;20052;-80
2024/01/22 01:42:00;;;;;;;2.53;1.35;;;;;;;6.18;85.11;99829.41;10443247;28;20056;-80
2024/01/22 01:47:04;;;;;;;3.13;2.15;;;;;;;6.68;82.91;99830.22;10436219;28;20110;-80
2024/01/22 01:52:08;;;;;;;4.18;1.90;;;;;;;6.57;83.52;99796.31;10419553;28;20705;-80
2024/01/22 01:57:12;;;;;;;4.38;1.63;;;;;;;6.56;83.88;99788.44;10445255;28;20446;-81
2024/01/22 02:02:16;;;;;;;4.65;1.60;;;;;;;6.95;81.69;99749.06;10442066;28;20049;-78
2024/01/22 02:07:19;;;;;;;1.83;1.10;;;;;;;7.04;81.08;99748.34;10441710;28;20064;-80
2024/01/22 02:12:24;;;;;;;2.50;1.30;;;;;;;6.99;81.65;99739.84;10436565;28;20048;-79
2024/01/22 02:17:29;;;;;;;3.00;1.88;;;;;;;6.71;83.06;99755.25;10436754;28;20037;-79
2024/01/22 02:22:32;;;;;;;4.60;1.40;;;;;;;7.23;80.33;99732.59;10415266;28;20487;-77
2024/01/22 02:27:36;;;;;;;5.82;1.50;;;;;;;7.03;81.32;99715.47;10420667;28;20048;-79
2024/01/22 02:32:39;;;;;;;4.78;1.05;;;;;;;7.23;79.69;99716.59;10436519;28;20060;-80
2024/01/22 02:37:43;;;;;;;1.65;1.25;;;;;;;7.47;78.38;99715.66;10449209;28;20094;-80
2024/01/22 02:42:47;;;;;;;3.55;1.30;;;;;;;7.43;78.31;99714.16;10451750;28;20044;-80
2024/01/22 02:47:50;;;;;;;5.95;1.50;;;;;;;7.21;79.77;99696.31;10443616;28;20393;-79
2024/01/22 02:52:54;;;;;;;2.85;1.10;;;;;;;7.24;79.55;99686.25;10438139;28;20053;-81
2024/01/22 02:57:58;;;;;;;4.10;1.50;;;;;;;7.45;78.04;99681.00;10419969;28;20051;-80
2024/01/22 03:03:01;;;;;;;3.53;1.58;;;;;;;7.34;78.72;99656.13;10444121;28;20052;-79
2024/01/22 03:08:05;;;;;;;7.80;1.50;;;;;;;7.38;77.98;99641.56;10439604;28;20100;-78
2024/01/22 03:13:09;;;;;;;2.13;1.00;;;;;;;7.25;78.25;99626.50;10452802;28;20053;-78
2024/01/22 03:18:13;;;;;;;4.47;1.02;;;;;;;7.54;76.96;99596.59;10460415;28;20055;-78
2024/01/22 03:23:16;;;;;;;1.48;0.98;;;;;;;7.41;77.42;99598.56;10447953;28;20040;-81
2024/01/22 03:28:21;;;;;;;2.80;1.05;;;;;;;7.34;78.20;99597.34;10454515;28;20044;-81
2024/01/22 03:33:24;;;;;;;4.03;1.35;;;;;;;7.46;77.30;99580.31;10417817;28;20516;-80
2024/01/22 03:38:28;;;;;;;2.80;0.88;;;;;;;7.56;76.40;99617.84;10438193;28;20737;-80
2024/01/22 03:43:32;;;;;;;2.97;1.30;;;;;;;7.54;76.61;99601.09;10452655;28;20095;-79
2024/01/22 03:48:35;;;;;;;2.80;0.98;;;;;;;7.41;77.23;99598.56;10441495;28;20044;-80
2024/01/22 03:53:38;;;;;;;4.38;1.10;;;;;;;7.68;75.86;99599.00;10451518;28;20268;-80
2024/01/22 03:58:44;;;;;;;1.70;0.82;;;;;;;7.37;77.42;99595.28;10468597;28;20377;-77
2024/01/22 04:03:47;;;;;;;2.55;0.90;;;;;;;7.55;77.23;99582.25;10455378;28;20694;-77
2024/01/22 04:08:50;;;;;;;4.90;0.90;;;;;;;7.83;75.60;99562.13;10449373;28;20157;-79
2024/01/22 04:13:54;;;;;;;2.08;1.00;;;;;;;7.70;76.70;99556.94;10431689;28;20048;-79
2024/01/22 04:18:57;;;;;;;4.70;1.25;;;;;;;7.86;76.46;99513.75;10433126;28;20770;-79
2024/01/22 04:24:01;;;;;;;1.80;1.10;;;;;;;7.49;78.23;99505.28;10439158;28;21751;-80
2024/01/22 04:29:05;;;;;;;1.67;1.00;;;;;;;7.37;79.92;99509.78;10459913;28;20131;-81
2024/01/22 04:34:08;;;;;;;2.25;1.17;;;;;;;7.70;79.34;99527.53;10440873;28;20060;-77
2024/01/22 04:39:11;;;;;;;2.25;0.93;;;;;;;7.65;82.39;99512.84;10444374;28;20053;-80
2024/01/22 04:44:15;;;;;;;4.43;1.60;;;;;;;7.25;91.25;99505.44;10456789;28;20121;-80
2024/01/22 04:49:18;;;;;;;1.17;0.95;;;;;;;6.50;100.00;99492.69;10449830;28;20049;-80
2024/01/22 04:54:22;;;;;;;4.43;1.10;;;;;;;6.51;100.00;99484.59;10446291;28;20575;-82
2024/01/22 04:59:26;;;;;;;2.97;1.05;;;;;;;6.01;100.00;99489.34;10435557;28;20049;-82
2024/01/22 05:04:29;;;;;;;2.13;1.38;;;;;;;6.14;100.00;99476.78;10439789;28;20060;-82
2024/01/22 05:09:32;;;;;;;1.80;0.85;;;;;;;5.85;100.00;99484.34;10441510;28;20044;-80
2024/01/22 05:14:40;;;;;;;1.42;1.13;;;;;;;6.04;100.00;99432.28;10426692;28;20048;-83
2024/01/22 05:19:43;;;;;;;2.22;2.00;;;;;;;5.93;100.00;99433.97;10482325;28;20075;-83
2024/01/22 05:24:47;;;;;;;2.22;1.52;;;;;;;5.84;100.00;99425.81;10453562;28;20060;-83
2024/01/22 05:29:51;;;;;;;1.40;1.08;;;;;;;5.70;100.00;99449.03;10430353;28;20045;-85
2024/01/22 05:34:54;;;;;;;4.13;1.38;;;;;;;6.03;100.00;99418.09;10440745;28;20048;-83
2024/01/22 05:39:58;;;;;;;1.23;1.13;;;;;;;6.02;100.00;99354.25;10446187;28;20072;-83
2024/01/22 05:45:03;;;;;;;3.13;0.90;;;;;;;6.22;100.00;99380.16;10450043;28;20051;-82
2024/01/22 05:50:08;;;;;;;2.75;1.33;;;;;;;6.36;100.00;99360.41;10446750;28;20057;-84
2024/01/22 05:55:12;;;;;;;1.85;1.20;;;;;;;6.59;100.00;99371.91;10441880;28;20080;-82
2024/01/22 06:00:22;;;;;;;3.13;1.10;;;;;;;6.54;100.00;99372.28;10454160;28;20049;-83
2024/01/22 06:05:25;;;;;;;1.45;0.90;;;;;;;6.63;100.00;99344.84;10447335;28;20094;-82
2024/01/22 06:10:29;;;;;;;0.90;0.65;;;;;;;6.70;100.00;99387.91;10447928;28;20494;-81
2024/01/22 06:15:34;;;;;;;0.55;0.35;;;;;;;6.69;100.00;99362.22;10460973;28;20057;-82
2024/01/22 06:20:37;;;;;;;2.88;0.75;;;;;;;6.76;100.00;99349.19;10451381;28;20056;-84
2024/01/22 06:25:42;;;;;;;2.28;0.50;;;;;;;6.72;100.00;99329.94;10439394;28;20045;-80
2024/01/22 06:30:46;;;;;;;1.55;0.55;;;;;;;6.76;100.00;99323.34;10474132;28;20053;-82
2024/01/22 06:35:50;;;;;;;0.40;0.40;;;;;;;7.09;100.00;99326.91;10449779;28;20135;-83
2024/01/22 06:40:53;;;;;;;0.38;0.32;;;;;;;7.01;100.00;99366.75;10444843;28;20109;-81
2024/01/22 06:45:58;;;;;;;0.35;0.15;;;;;;;7.38;100.00;99326.31;10435843;28;21188;-81
2024/01/22 06:51:00;;;;;;;0.65;0.30;;;;;;;7.32;100.00;99324.13;10470770;28;20037;-82
2024/01/22 06:56:05;;;;;;;2.78;0.50;;;;;;;7.77;100.00;99338.09;10450987;28;20058;-82
2024/01/22 07:01:09;;;;;;;0.40;0.35;;;;;;;7.63;100.00;99357.97;10451966;28;20192;-82
2024/01/22 07:06:12;;;;;;;0.88;0.40;;;;;;;7.76;100.00;99365.78;10448352;28;20044;-80
2024/01/22 07:11:16;;;;;;;0.43;0.43;;;;;;;7.89;100.00;99395.00;10426076;28;20101;-84
2024/01/22 07:16:21;;;;;;;0.60;0.40;;;;;;;7.71;100.00;99333.28;10442944;28;20048;-82
2024/01/22 07:21:24;;;;;;;0.22;0.20;;;;;;;7.71;100.00;99360.00;10462088;28;20037;-78
2024/01/22 07:26:27;;;;;;;2.05;0.43;;;;;;;7.88;100.00;99375.44;10455080;28;20878;-81
2024/01/22 07:31:31;;;;;;;0.60;0.45;;;;;;;7.91;100.00;99339.56;10429470;28;20056;-84
2024/01/22 07:36:34;;;;;;;2.05;0.30;;;;;;;8.03;100.00;99401.84;10438839;28;20052;-82
2024/01/22 07:41:38;;;;;;;0.38;0.25;;;;;;;7.94;100.00;99366.03;10444753;28;20178;-82
2024/01/22 07:46:43;;;;;;;0.70;0.40;;;;;;;7.53;100.00;99380.25;10458155;28;20059;-81
2024/01/22 07:51:46;;;;;;;2.95;0.60;;;;;;;7.34;100.00;99419.19;10453942;28;20052;-83
2024/01/22 07:56:49;;;;;;;0.88;0.73;;;;;;;7.53;100.00;99423.03;10458041;28;20048;-81
2024/01/22 08:01:53;;;;;;;0.63;0.40;;;;;;;7.50;100.00;99400.06;10459243;28;20053;-82
2024/01/22 08:07:00;;;;;;;1.33;0.43;;;;;;;7.13;100.00;99431.66;10423147;28;20274;-84
2024/01/22 08:12:03;;;;;;;0.90;0.50;;;;;;;6.89;100.00;99411.31;10432680;28;20126;-83
2024/01/22 08:17:08;;;;;;;1.63;0.50;;;;;;;6.75;100.00;99415.09;10440722;28;20470;-83
2024/01/22 08:22:11;;;;;;;0.70;0.50;;;;;;;6.61;100.00;99429.53;10436054;28;20055;-82
2024/01/22 08:27:14;;;;;;;4.25;0.60;;;;;;;6.73;100.00;99426.84;10437373;28;20782;-81
2024/01/22 08:32:18;;;;;;;0.60;0.40;;;;;;;6.62;100.00;99436.56;10437742;28;20056;-82
2024/01/22 08:37:22;;;;;;;1.35;0.57;;;;;;;6.49;100.00;99422.47;10442402;28;20037;-80
2024/01/22 08:42:25;;;;;;;1.55;0.60;;;;;;;6.62;100.00;99414.38;10493147;28;20189;-81
2024/01/22 08:47:29;;;;;;;1.25;0.88;;;;;;;6.97;100.00;99410.72;10438049;28;20052;-78
2024/01/22 08:52:32;;;;;;;0.63;0.60;;;;;;;6.99;100.00;99411.41;10482715;28;20044;-77
2024/01/22 08:57:35;;;;;;;0.88;0.88;;;;;;;6.74;100.00;99424.03;10486400;28;20052;-81
2024/01/22 09:02:40;;;;;;;1.48;0.90;;;;;;;6.88;100.00;99396.25;10454040;28;20056;-78
2024/01/22 09:07:43;;;;;;;0.95;0.75;;;;;;;6.79;100.00;99397.84;10481944;28;20052;-80
2024/01/22 09:12:48;;;;;;;2.25;0.95;;;;;;;7.38;100.00;99390.44;10454145;28;20099;-79
2024/01/22 09:17:52;;;;;;;1.02;0.93;;;;;;;7.68;100.00;99384.31;10441355;28;20041;-80
2024/01/22 09:22:55;;;;;;;5.18;1.17;;;;;;;7.47;100.00;99419.03;10458845;28;20048;-80
2024/01/22 09:27:59;;;;;;;3.17;0.70;;;;;;;7.54;100.00;99387.28;10463786;28;20049;-79
2024/01/22 09:33:05;;;;;;;1.38;0.80;;;;;;;7.67;100.00;99399.50;10457838;28;20491;-80
2024/01/22 09:38:08;;;;;;;0.70;0.70;;;;;;;7.67;100.00;99402.16;10446086;28;20059;-81
2024/01/22 09:43:12;;;;;;;1.48;0.70;;;;;;;8.14;100.00;99397.25;10467007;28;20619;-81
2024/01/22 09:48:17;;;;;;;1.67;0.80;;;;;;;8.29;100.00;99379.03;10459671;28;20056;-80
2024/01/22 09:53:21;;;;;;;3.78;0.70;;;;;;;8.28;100.00;99385.38;10468242;28;20178;-82
2024/01/22 09:58:28;;;;;;;2.03;0.85;;;;;;;8.12;100.00;99388.53;10460988;28;20157;-83
2024/01/22 10:03:32;;;;;;;0.70;0.60;;;;;;;8.06;100.00;99391.72;10466645;28;20129;-80
2024/01/22 10:08:36;;;;;;;4.13;0.93;;;;;;;7.69;100.00;99392.19;10457548;28;20518;-79
2024/01/22 10:13:57;;;;;;;1.65;0.95;;;;;;;7.86;100.00;99388.09;10459591;28;20685;-82
2024/01/22 10:19:05;;;;;;;3.95;1.38;;;;;;;7.75;100.00;99385.47;10419020;28;21763;-80
2024/01/22 10:24:09;;;;;;;1.95;0.85;;;;;;;7.65;100.00;99371.19;10459126;28;20038;-78
2024/01/22 10:29:15;;;;;;;3.63;1.52;;;;;;;7.79;100.00;99368.22;10538876;28;20082;-79
2024/01/22 10:34:20;;;;;;;5.85;1.40;;;;;;;7.78;100.00;99362.97;10484816;28;20044;-82
2024/01/22 10:39:23;;;;;;;1.85;1.08;;;;;;;7.80;100.00;99348.50;10482130;28;20055;-78
2024/01/22 10:44:27;;;;;;;2.08;1.10;;;;;;;7.89;100.00;99361.06;10500726;28;20055;-80
2024/01/22 10:49:32;;;;;;;4.03;1.30;;;;;;;7.75;100.00;99349.88;10474157;28;21261;-81
2024/01/22 10:54:37;;;;;;;3.63;1.38;;;;;;;7.85;100.00;99361.50;10501141;28;20663;-79
2024/01/22 10:59:41;;;;;;;4.72;1.00;;;;;;;8.24;100.00;99332.25;10505017;28;20055;-80
2024/01/22 11:04:47;;;;;;;5.00;1.35;;;;;;;8.30;100.00;99332.56;10489752;28;20045;-82
2024/01/22 11:09:54;;;;;;;4.07;1.20;;;;;;;8.48;100.00;99380.13;10478176;28;20048;-80
2024/01/22 11:15:01;;;;;;;4.07;1.33;;;;;;;9.17;100.00;99307.78;10468680;28;20048;-81
2024/01/22 11:20:19;;;;;;;3.47;1.40;;;;;;;9.07;100.00;99314.97;10467700;28;20053;-77
2024/01/22 11:25:22;;;;;;;4.53;0.80;;;;;;;9.11;100.00;99334.31;10496909;28;20064;-79
2024/01/22 11:30:29;;;;;;;3.33;1.15;;;;;;;9.24;100.00;99306.25;10497246;28;20058;-81
2024/01/22 11:35:36;;;;;;;5.13;1.40;;;;;;;9.03;100.00;99298.34;10467305;28;20056;-79
2024/01/22 11:40:50;;;;;;;6.40;1.75;;;;;;;9.16;100.00;99298.06;10475444;28;20606;-82
2024/01/22 11:45:56;;;;;;;2.50;1.23;;;;;;;9.13;100.00;99311.72;10466078;28;20415;-82
2024/01/22 11:51:06;;;;;;;3.13;1.10;;;;;;;9.13;100.00;99289.44;10472840;28;20044;-82
2024/01/22 11:56:11;;;;;;;4.18;1.33;;;;;;;8.84;100.00;99290.31;10495774;28;20056;-81
2024/01/22 12:01:15;;;;;;;2.25;1.17;;;;;;;8.43;100.00;99313.59;10485042;28;20044;-80
2024/01/22 12:06:20;;;;;;;5.25;1.50;;;;;;;8.18;100.00;99297.03;10493806;28;20161;-80
2024/01/22 12:11:23;;;;;;;2.72;1.63;;;;;;;8.22;100.00;99283.38;10502013;28;20411;-79
2024/01/22 12:16:26;;;;;;;4.63;2.13;;;;;;;7.81;100.00;99314.59;10498307;28;20047;-80
2024/01/22 12:21:31;;;;;;;1.88;0.50;;;;;;;6.72;100.00;99377.97;10477623;28;20554;-81
2024/01/22 12:26:37;;;;;;;6.18;0.80;;;;;;;6.51;100.00;99377.88;10512790;28;20113;-80
2024/01/22 12:31:40;;;;;;;2.97;0.70;;;;;;;6.35;100.00;99393.38;10467320;28;20048;-79
2024/01/22 12:36:45;;;;;;;2.42;0.85;;;;;;;6.18;100.00;99403.56;10451160;28;20052;-81
2024/01/22 12:41:50;;;;;;;5.28;1.23;;;;;;;5.95;100.00;99412.50;10475012;28;20434;-80
2024/01/22 12:46:53;;;;;;;5.78;1.83;;;;;;;5.91;100.00;99430.56;10484652;28;20181;-82
2024/01/22 12:51:57;;;;;;;9.48;1.27;;;;;;;5.80;100.00;99427.03;10467094;28;20075;-82
2024/01/22 12:57:00;;;;;;;7.68;1.50;;;;;;;5.69;100.00;99446.47;10432737;28;20048;-82
2024/01/22 13:02:04;;;;;;;7.47;1.63;;;;;;;5.88;100.00;99424.63;10449584;28;20051;-78
2024/01/22 13:07:08;;;;;;;7.57;1.30;;;;;;;5.87;100.00;99452.22;10439204;28;20836;-84
2024/01/22 13:12:11;;;;;;;5.78;0.93;;;;;;;5.87;100.00;99458.41;10435140;28;20052;-81
2024/01/22 13:17:14;;;;;;;7.35;1.50;;;;;;;6.08;100.00;99473.72;10442264;28;20041;-80
2024/01/22 13:22:21;;;;;;;8.15;1.38;;;;;;;5.89;100.00;99491.13;10459236;28;20059;-81
2024/01/22 13:27:24;;;;;;;12.07;1.92;;;;;;;6.10;100.00;99485.97;10456841;28;20048;-81
2024/01/22 13:32:27;;;;;;;12.35;1.60;;;;;;;6.03;100.00;99483.88;10449799;28;20054;-79
2024/01/22 13:37:33;;;;;;;11.80;1.65;;;;;;;6.38;100.00;99481.16;10449926;28;20056;-79
2024/01/22 13:42:38;;;;;;;13.20;2.28;;;;;;;6.34;100.00;99485.06;10431960;28;20049;-80
2024/01/22 13:47:41;;;;;;;10.23;1.73;;;;;;;6.56;100.00;99493.09;10469817;28;20059;-81
2024/01/22 13:52:46;;;;;;;15.18;2.92;;;;;;;6.95;100.00;99511.44;10498914;28;20050;-81
2024/01/22 13:57:49;;;;;;;10.80;2.30;;;;;;;6.88;100.00;99521.72;10496722;28;20047;-77
2024/01/22 14:02:52;;;;;;;11.02;1.92;;;;;;;7.01;100.00;99524.28;10498298;28;20517;-78
2024/01/22 14:07:56;;;;;;;11.25;3.00;;;;;;;6.68;100.00;99530.44;10507422;28;20063;-79
2024/01/22 14:12:59;;;;;;;17.42;3.80;;;;;;;6.69;100.00;99527.66;10501018;28;20220;-80
2024/01/22 14:18:04;;;;;;;19.73;4.15;;;;;;;7.55;100.00;99533.31;10484442;28;20203;-80
2024/01/22 14:23:09;;;;;;;13.70;2.33;;;;;;;7.84;100.00;99541.59;10488333;28;20097;-84
2024/01/22 14:28:12;;;;;;;17.33;3.35;;;;;;;7.23;100.00;99550.97;10503284;28;20321;-82
2024/01/22 14:33:16;;;;;;;14.73;3.40;;;;;;;6.82;100.00;99564.91;10509421;28;20075;-82
2024/01/22 14:38:21;;;;;;;15.60;3.58;;;;;;;7.12;100.00;99556.31;10491089;28;20068;-82
2024/01/22 14:43:35;;;;;;;23.83;5.15;;;;;;;7.53;100.00;99565.50;10454700;28;20059;-82
2024/01/22 14:48:40;;;;;;;12.90;3.20;;;;;;;7.63;100.00;99579.81;10481451;28;20053;-82
2024/01/22 14:53:46;;;;;;;24.85;3.40;;;;;;;7.85;100.00;99578.06;10472200;28;20047;-82
2024/01/22 14:58:49;;;;;;;23.70;3.50;;;;;;;7.02;100.00;99596.28;10494399;28;20048;-79
2024/01/22 15:03:53;;;;;;;15.35;3.53;;;;;;;6.57;100.00;99606.00;10498911;28;20063;-80
2024/01/22 15:08:57;;;;;;;18.98;3.75;;;;;;;7.08;100.00;99612.78;10473126;28;20052;-80
2024/01/22 15:14:00;;;;;;;30.20;4.63;;;;;;;6.87;100.00;99610.81;10504451;28;21321;-78
2024/01/22 15:19:03;;;;;;;15.15;3.08;;;;;;;6.73;100.00;99624.34;10501077;28;20071;-80
2024/01/22 15:24:08;;;;;;;24.05;4.53;;;;;;;6.79;100.00;99608.69;10492993;28;20134;-83
2024/01/22 15:29:13;;;;;;;22.30;3.67;;;;;;;6.59;100.00;99614.75;10495428;28;20055;-79
2024/01/22 15:34:16;;;;;;;27.75;4.32;;;;;;;6.77;100.00;99625.81;10519043;28;20515;-83
2024/01/22 15:39:21;;;;;;;20.45;3.50;;;;;;;6.78;100.00;99628.38;10485181;28;20059;-81
2024/01/22 15:44:24;;;;;;;15.98;2.72;;;;;;;6.83;100.00;99642.22;10511997;28;20054;-81
2024/01/22 15:49:29;;;;;;;24.15;2.92;;;;;;;7.13;100.00;99648.84;10478218;28;20048;-80
2024/01/22 15:54:34;;;;;;;21.35;3.30;;;;;;;6.82;100.00;99642.31;10481355;28;20054;-80
2024/01/22 15:59:37;;;;;;;20.35;4.18;;;;;;;6.70;100.00;99661.97;10499991;28;21271;-81
2024/01/22 16:04:40;;;;;;;19.60;4.22;;;;;;;6.74;100.00;99660.75;10482267;28;20528;-81
2024/01/22 16:09:45;;;;;;;26.40;3.45;;;;;;;6.65;100.00;99686.31;10485269;28;20044;-81
2024/01/22 16:14:51;;;;;;;24.27;3.50;;;;;;;6.55;100.00;99682.63;10504779;28;20032;-79
2024/01/22 16:19:54;;;;;;;21.15;4.13;;;;;;;6.34;100.00;99693.13;10501395;28;20053;-81
2024/01/22 16:25:02;;;;;;;21.73;4.10;;;;;;;6.39;95.82;99717.63;10509628;28;20104;-80
2024/01/22 16:30:07;;;;;;;19.05;3.08;;;;;;;6.68;92.22;99723.44;10464974;28;20090;-81
2024/01/22 16:35:11;;;;;;;21.88;3.05;;;;;;;6.79;90.34;99741.31;10494599;28;20168;-82
2024/01/22 16:40:16;;;;;;;31.80;4.28;;;;;;;6.36;90.58;99761.41;10480797;28;22500;-82
2024/01/22 16:45:19;;;;;;;16.75;2.75;;;;;;;6.50;89.89;99784.41;10479905;28;20043;-82
2024/01/22 16:50:22;;;;;;;14.77;3.28;;;;;;;6.46;90.14;99772.22;10448842;28;20047;-80
2024/01/22 16:55:27;;;;;;;21.58;3.67;;;;;;;6.68;89.72;99784.84;10482394;28;20075;-81
2024/01/22 17:00:30;;;;;;;16.63;3.17;;;;;;;6.46;90.56;99782.91;10467855;28;20134;-80
2024/01/22 17:05:33;;;;;;;14.73;3.67;;;;;;;6.53;91.11;99786.00;10479489;28;20143;-79
2024/01/22 17:10:40;;;;;;;21.73;3.33;;;;;;;6.38;90.97;99799.47;10458209;28;20053;-78
2024/01/22 17:15:43;;;;;;;28.35;4.35;;;;;;;6.28;91.76;99805.56;10489469;28;20056;-80
2024/01/22 17:20:46;;;;;;;22.15;4.50;;;;;;;6.26;93.60;99818.19;10473123;28;20051;-81
2024/01/22 17:25:50;;;;;;;25.50;3.97;;;;;;;6.35;92.44;99821.03;10469018;28;20055;-81
2024/01/22 17:30:54;;;;;;;19.25;4.50;;;;;;;6.17;92.80;99820.56;10475606;28;20053;-82
2024/01/22 17:35:57;;;;;;;19.02;4.18;;;;;;;6.10;91.82;99821.94;10492694;28;20048;-78
2024/01/22 17:41:01;;;;;;;15.98;4.22;;;;;;;6.27;89.42;99846.56;10441403;28;20060;-82
2024/01/22 17:46:06;;;;;;;24.85;3.58;;;;;;;6.09;91.05;99854.06;10449974;28;20041;-81
2024/01/22 17:51:09;;;;;;;15.27;2.63;;;;;;;6.16;90.87;99856.16;10449189;28;20044;-80
2024/01/22 17:56:13;;;;;;;19.42;3.70;;;;;;;5.86;91.85;99864.50;10440413;28;20060;-80
2024/01/22 18:01:16;;;;;;;12.82;2.38;;;;;;;5.91;90.94;99880.19;10445507;28;20731;-82
2024/01/22 18:06:19;;;;;;;10.77;2.15;;;;;;;5.96;90.64;99878.06;10447267;28;20055;-80
2024/01/22 18:11:24;;;;;;;17.85;3.47;;;;;;;6.21;87.84;99895.84;10453851;28;21096;-79
2024/01/22 18:16:27;;;;;;;23.13;4.57;;;;;;;6.02;89.64;99898.97;10424748;28;20463;-79
2024/01/22 18:21:30;;;;;;;15.38;3.95;;;;;;;5.84;90.78;99887.78;10435940;28;20048;-80
2024/01/22 18:26:35;;;;;;;17.38;2.38;;;;;;;5.97;89.71;99885.09;10452663;28;20133;-78
2024/01/22 18:31:38;;;;;;;17.23;3.95;;;;;;;5.73;91.43;99900.97;10465938;28;20107;-78
2024/01/22 18:36:41;;;;;;;30.13;4.38;;;;;;;6.07;88.90;99915.50;10466399;28;20044;-78
2024/01/22 18:41:45;;;;;;;17.25;2.72;;;;;;;6.02;88.82;99933.63;10441474;28;20053;-76
2024/01/22 18:46:49;;;;;;;14.30;3.22;;;;;;;5.99;89.44;99951.66;10470900;28;20518;-81
2024/01/22 18:51:52;;;;;;;16.88;3.45;;;;;;;6.43;87.16;99966.38;10468008;28;20051;-80
2024/01/22 18:56:56;;;;;;;33.03;3.13;;;;;;;6.05;89.59;99967.22;10469326;28;20120;-81
2024/01/22 19:01:59;;;;;;;29.95;5.10;;;;;;;6.10;90.90;99975.75;10450776;28;20527;-80
2024/01/22 19:07:02;;;;;;;9.88;2.35;;;;;;;5.89;93.04;99981.59;10459621;28;20052;-78
2024/01/22 19:12:08;;;;;;;10.90;2.22;;;;;;;6.07;93.40;99974.16;10471532;28;20959;-79
2024/01/22 19:17:11;;;;;;;19.88;3.63;;;;;;;6.02;93.82;99986.09;10450079;28;20113;-80
2024/01/22 19:22:14;;;;;;;14.15;2.72;;;;;;;5.86;94.76;99996.94;10416547;28;1173389;-80
2024/01/22 19:27:18;;;;;;;14.25;3.38;;;;;;;6.03;93.77;99990.47;10442999;28;20045;-78
2024/01/22 19:32:22;;;;;;;28.40;4.30;;;;;;;6.05;93.78;100000.06;10440529;28;20044;-80
2024/01/22 19:37:25;;;;;;;15.70;3.85;;;;;;;6.05;92.99;100002.72;10478115;28;20131;-76
2024/01/22 19:42:29;;;;;;;26.90;4.65;;;;;;;6.16;91.31;100018.84;10451377;28;20068;-78
2024/01/22 19:47:33;;;;;;;15.73;3.63;;;;;;;6.21;90.59;100004.38;10454404;28;20650;-80
2024/01/22 19:52:36;;;;;;;17.58;3.60;;;;;;;5.66;100.00;100025.78;10455142;28;20040;-80
2024/01/22 19:57:40;;;;;;;20.00;4.85;;;;;;;5.27;100.00;100032.78;10452615;28;20076;-78
2024/01/22 20:02:45;;;;;;;13.00;1.75;;;;;;;3.61;100.00;100055.25;10444976;28;20053;-78
2024/01/22 20:07:52;;;;;;;14.27;3.33;;;;;;;3.01;100.00;100047.13;10478056;28;20080;-81
2024/01/22 20:12:57;;;;;;;16.15;2.63;;;;;;;2.97;100.00;100056.22;10458433;28;20126;-82
2024/01/22 20:18:04;;;;;;;13.82;2.25;;;;;;;3.32;100.00;100058.69;10453912;28;20148;-83
2024/01/22 20:23:08;;;;;;;7.95;2.30;;;;;;;3.79;100.00;100063.97;10461350;28;20049;-82
2024/01/22 20:28:14;;;;;;;12.43;3.25;;;;;;;3.84;100.00;100087.63;10459453;28;20056;-81
2024/01/22 20:33:17;;;;;;;19.50;3.22;;;;;;;3.98;100.00;100077.06;10464601;28;20048;-80
2024/01/22 20:38:20;;;;;;;22.98;4.53;;;;;;;4.55;100.00;100087.84;10473863;28;20067;-81
2024/01/22 20:43:24;;;;;;;23.67;3.53;;;;;;;4.01;100.00;100097.28;10448617;28;20072;-79
2024/01/22 20:48:28;;;;;;;22.48;5.05;;;;;;;4.29;100.00;100077.91;10476079;28;20836;-80
2024/01/22 20:53:33;;;;;;;28.83;5.75;;;;;;;4.55;100.00;100078.97;10461867;28;20059;-79
2024/01/22 20:58:41;;;;;;;25.52;5.07;;;;;;;4.60;100.00;100084.88;10448639;28;20061;-79
2024/01/22 21:03:46;;;;;;;25.35;4.20;;;;;;;4.78;100.00;100083.75;10474187;28;20063;-78
2024/01/22 21:08:51;;;;;;;24.20;4.18;;;;;;;4.92;100.00;100092.69;10454440;28;20051;-78
2024/01/22 21:13:56;;;;;;;16.52;3.22;;;;;;;5.03;100.00;100076.94;10476330;28;20048;-79
2024/01/22 21:18:59;;;;;;;17.27;3.03;;;;;;;4.97;100.00;100082.63;10468782;28;20071;-77
2024/01/22 21:24:02;;;;;;;21.85;4.47;;;;;;;5.42;100.00;100084.19;10472765;28;20064;-80
2024/01/22 21:29:07;;;;;;;13.65;3.50;;;;;;;5.12;100.00;100071.03;10478277;28;20044;-82
2024/01/22 21:34:10;;;;;;;20.88;3.78;;;;;;;4.91;100.00;100075.88;10471183;28;20049;-83
2024/01/22 21:39:14;;;;;;;25.15;4.65;;;;;;;5.06;100.00;100077.59;10469448;28;20113;-82
2024/01/22 21:44:18;;;;;;;10.95;3.17;;;;;;;5.03;100.00;100080.44;10487440;28;20044;-82
2024/01/22 21:49:21;;;;;;;28.52;5.25;;;;;;;5.27;100.00;100079.88;10472589;28;20045;-82
2024/01/22 21:54:24;;;;;;;18.80;3.60;;;;;;;5.30;100.00;100095.66;10476520;28;20048;-80
2024/01/22 21:59:29;;;;;;;15.02;4.10;;;;;;;5.29;100.00;100091.25;10481198;28;20055;-82
2024/01/22 22:04:34;;;;;;;25.20;4.75;;;;;;;5.68;100.00;100098.50;10456577;28;20512;-80
2024/01/22 22:09:38;;;;;;;27.13;4.22;;;;;;;5.79;100.00;100088.94;10452118;28;20056;-81
2024/01/22 22:14:44;;;;;;;19.80;3.47;;;;;;;5.37;100.00;100101.41;10441863;28;20073;-84
2024/01/22 22:19:47;;;;;;;30.90;4.57;;;;;;;5.31;100.00;100107.16;10447023;28;20049;-83
2024/01/22 22:24:50;;;;;;;31.58;4.97;;;;;;;4.45;100.00;100096.47;10453938;28;20413;-80
2024/01/22 22:29:55;;;;;;;25.63;6.22;;;;;;;4.39;100.00;100114.50;10455981;28;20064;-81
2024/01/22 22:34:58;;;;;;;33.42;5.47;;;;;;;4.10;100.00;100110.88;10435416;28;20072;-79
2024/01/22 22:40:01;;;;;;;34.67;6.47;;;;;;;4.25;100.00;100116.25;10439343;28;20722;-83
2024/01/22 22:45:08;;;;;;;32.55;6.07;;;;;;;4.47;100.00;100111.38;10432031;28;20052;-79
2024/01/22 22:50:11;;;;;;;20.23;4.97;;;;;;;4.61;100.00;100115.88;10415315;28;20048;-82
2024/01/22 22:55:14;;;;;;;33.88;6.55;;;;;;;4.82;100.00;100125.19;10433427;28;20036;-82
2024/01/22 23:00:18;;;;;;;32.83;5.32;;;;;;;4.68;100.00;100117.19;10438781;28;21584;-81
2024/01/22 23:05:23;;;;;;;27.27;5.38;;;;;;;4.75;100.00;100110.56;10447214;28;20361;-81
2024/01/22 23:10:26;;;;;;;25.38;4.50;;;;;;;4.38;100.00;100136.69;10435466;28;20063;-81
2024/01/22 23:15:30;;;;;;;23.52;4.65;;;;;;;4.55;100.00;100125.06;10448037;28;20048;-82
2024/01/22 23:20:33;;;;;;;26.00;4.40;;;;;;;4.45;100.00;100155.81;10442027;28;20253;-81
2024/01/22 23:25:37;;;;;;;28.55;4.55;;;;;;;4.66;100.00;100151.00;10444109;28;20057;-80